createdAt,value
2023-02-24T00:00:15.065Z,4.42
2023-02-24T00:01:15.059Z,5.30
2023-02-24T00:02:11.078Z,5.24
2023-02-24T00:03:11.708Z,4.50
2023-02-24T00:04:14.062Z,7.70
2023-02-24T00:05:11.059Z,4.68
2023-02-24T00:06:15.067Z,5.98
2023-02-24T00:07:11.077Z,5.02
2023-02-24T00:08:11.067Z,4.64
2023-02-24T00:09:17.064Z,4.84
2023-02-24T00:10:11.069Z,6.22
2023-02-24T00:11:14.057Z,6.76
2023-02-24T00:12:11.077Z,4.50
2023-02-24T00:13:11.065Z,4.96
2023-02-24T00:14:11.057Z,6.86
2023-02-24T00:15:11.054Z,4.98
2023-02-24T00:16:11.074Z,5.68
2023-02-24T00:17:11.101Z,6.06
2023-02-24T00:18:11.079Z,4.92
2023-02-24T00:19:11.059Z,4.64
2023-02-24T00:20:11.057Z,5.32
2023-02-24T00:21:12.058Z,4.82
2023-02-24T00:22:11.055Z,4.90
2023-02-24T00:23:11.068Z,3.86
2023-02-24T00:24:11.054Z,4.20
2023-02-24T00:25:11.056Z,5.26
2023-02-24T00:26:11.056Z,3.70
2023-02-24T00:27:15.063Z,4.34
2023-02-24T00:28:11.058Z,5.42
2023-02-24T00:29:11.070Z,4.36
2023-02-24T00:30:11.059Z,5.14
2023-02-24T00:31:16.180Z,3.38
2023-02-24T00:32:11.339Z,4.04
2023-02-24T00:33:11.066Z,4.06
2023-02-24T00:34:11.067Z,4.36
2023-02-24T00:35:11.073Z,3.46
2023-02-24T00:36:15.066Z,4.48
2023-02-24T00:37:12.060Z,3.36
2023-02-24T00:38:11.066Z,4.44
2023-02-24T00:39:15.067Z,3.88
2023-02-24T00:40:15.065Z,4.06
2023-02-24T00:41:14.136Z,3.90
2023-02-24T00:42:11.084Z,4.24
2023-02-24T00:43:11.068Z,3.52
2023-02-24T00:44:12.085Z,3.46
2023-02-24T00:45:13.084Z,2.82
2023-02-24T00:46:15.105Z,3.64
2023-02-24T00:47:11.067Z,3.94
2023-02-24T00:48:11.072Z,3.06
2023-02-24T00:49:12.076Z,2.98
2023-02-24T00:50:11.068Z,3.46
2023-02-24T00:51:11.068Z,3.32
2023-02-24T00:52:11.070Z,5.38
2023-02-24T00:53:11.065Z,6.18
2023-02-24T00:54:11.079Z,4.70
2023-02-24T00:55:17.072Z,6.26
2023-02-24T00:56:11.091Z,4.00
2023-02-24T00:57:12.070Z,4.60
2023-02-24T00:58:11.073Z,3.14
2023-02-24T00:59:11.069Z,3.70
2023-02-24T01:00:15.067Z,3.06
2023-02-24T01:01:20.398Z,2.74
2023-02-24T01:02:11.087Z,3.46
2023-02-24T01:03:11.074Z,2.86
2023-02-24T01:04:11.163Z,2.94
2023-02-24T01:05:11.064Z,3.36
2023-02-24T01:06:11.071Z,4.38
2023-02-24T01:07:14.076Z,3.98
2023-02-24T01:08:11.065Z,3.48
2023-02-24T01:09:12.062Z,2.76
2023-02-24T01:10:12.054Z,5.66
2023-02-24T01:11:15.065Z,2.78
2023-02-24T01:12:15.113Z,4.90
2023-02-24T01:13:11.061Z,4.06
2023-02-24T01:14:15.077Z,2.82
2023-02-24T01:15:11.081Z,3.12
2023-02-24T01:16:11.150Z,4.14
2023-02-24T01:17:11.055Z,2.96
2023-02-24T01:18:12.100Z,2.94
2023-02-24T01:19:11.061Z,3.56
2023-02-24T01:20:15.061Z,2.60
2023-02-24T01:21:11.060Z,2.08
2023-02-24T01:22:12.069Z,2.22
2023-02-24T01:23:11.058Z,4.36
2023-02-24T01:24:11.062Z,2.26
2023-02-24T01:25:11.068Z,2.12
2023-02-24T01:26:11.057Z,2.60
2023-02-24T01:27:11.068Z,2.66
2023-02-24T01:28:11.139Z,2.78
2023-02-24T01:29:13.075Z,2.76
2023-02-24T01:30:11.063Z,3.08
2023-02-24T01:31:11.163Z,2.56
2023-02-24T01:32:18.344Z,2.40
2023-02-24T01:33:11.104Z,1.96
2023-02-24T01:34:13.064Z,2.00
2023-02-24T01:35:11.063Z,2.46
2023-02-24T01:36:17.060Z,2.10
2023-02-24T01:37:11.064Z,2.36
2023-02-24T01:38:11.066Z,2.82
2023-02-24T01:39:14.058Z,2.26
2023-02-24T01:40:15.064Z,2.54
2023-02-24T01:41:14.082Z,2.86
2023-02-24T01:42:14.065Z,2.68
2023-02-24T01:43:12.066Z,2.64
2023-02-24T01:44:23.068Z,3.28
2023-02-24T01:45:16.094Z,3.06
2023-02-24T01:46:11.100Z,2.66
2023-02-24T01:47:11.068Z,2.20
2023-02-24T01:48:11.084Z,2.36
2023-02-24T01:49:17.070Z,2.42
2023-02-24T01:50:11.065Z,2.70
2023-02-24T01:51:12.072Z,2.94
2023-02-24T01:52:14.079Z,2.74
2023-02-24T01:53:11.070Z,2.90
2023-02-24T01:54:12.062Z,3.82
2023-02-24T01:55:21.075Z,2.30
2023-02-24T01:56:11.075Z,2.46
2023-02-24T01:57:12.066Z,2.20
2023-02-24T01:58:16.085Z,2.64
2023-02-24T01:59:11.072Z,2.46
2023-02-24T02:00:15.069Z,2.92
2023-02-24T02:01:14.066Z,3.24
2023-02-24T02:02:11.219Z,2.72
2023-02-24T02:03:19.070Z,3.20
2023-02-24T02:04:19.070Z,3.94
2023-02-24T02:05:11.066Z,3.26
2023-02-24T02:06:12.102Z,3.10
2023-02-24T02:07:12.071Z,2.46
2023-02-24T02:08:12.078Z,2.22
2023-02-24T02:09:11.073Z,2.40
2023-02-24T02:10:12.083Z,2.64
2023-02-24T02:11:11.069Z,2.02
2023-02-24T02:12:11.066Z,3.34
2023-02-24T02:13:14.075Z,2.20
2023-02-24T02:14:11.071Z,3.00
2023-02-24T02:15:14.069Z,2.18
2023-02-24T02:16:21.136Z,2.64
2023-02-24T02:17:19.077Z,2.32
2023-02-24T02:18:21.117Z,2.16
2023-02-24T02:19:19.067Z,2.26
2023-02-24T02:20:27.068Z,2.00
2023-02-24T02:21:19.541Z,2.02
2023-02-24T02:22:19.069Z,1.96
2023-02-24T02:23:19.114Z,2.02
2023-02-24T02:24:21.122Z,2.26
2023-02-24T02:25:19.071Z,2.28
2023-02-24T02:26:23.072Z,2.42
2023-02-24T02:27:21.292Z,2.04
2023-02-24T02:28:21.070Z,2.80
2023-02-24T02:29:19.082Z,1.70
2023-02-24T02:30:21.080Z,1.52
2023-02-24T02:31:19.720Z,1.92
2023-02-24T02:32:20.302Z,2.24
2023-02-24T02:33:19.072Z,2.82
2023-02-24T02:34:18.079Z,1.96
2023-02-24T02:35:19.126Z,2.32
2023-02-24T02:36:21.068Z,2.30
2023-02-24T02:37:16.087Z,2.36
2023-02-24T02:38:19.073Z,1.62
2023-02-24T02:39:19.073Z,2.36
2023-02-24T02:40:17.069Z,2.98
2023-02-24T02:41:19.446Z,1.96
2023-02-24T02:42:23.074Z,3.12
2023-02-24T02:43:17.078Z,2.44
2023-02-24T02:44:20.089Z,2.10
2023-02-24T02:45:19.068Z,2.76
2023-02-24T02:46:16.166Z,2.66
2023-02-24T02:47:19.077Z,2.30
2023-02-24T02:48:19.071Z,1.66
2023-02-24T02:49:19.066Z,2.10
2023-02-24T02:50:20.073Z,1.78
2023-02-24T02:51:12.069Z,2.32
2023-02-24T02:52:21.080Z,1.90
2023-02-24T02:53:15.066Z,1.88
2023-02-24T02:54:19.077Z,1.88
2023-02-24T02:55:19.074Z,1.82
2023-02-24T02:56:21.066Z,1.56
2023-02-24T02:57:17.081Z,3.10
2023-02-24T02:58:17.063Z,2.12
2023-02-24T02:59:11.066Z,1.98
2023-02-24T03:00:19.069Z,1.52
2023-02-24T03:01:11.146Z,4.04
2023-02-24T03:02:15.199Z,2.00
2023-02-24T03:03:16.079Z,1.86
2023-02-24T03:04:11.066Z,2.12
2023-02-24T03:05:15.076Z,2.46
2023-02-24T03:06:17.065Z,2.18
2023-02-24T03:07:11.080Z,2.70
2023-02-24T03:08:11.062Z,1.98
2023-02-24T03:09:19.064Z,2.04
2023-02-24T03:10:19.074Z,2.60
2023-02-24T03:11:13.065Z,3.08
2023-02-24T03:12:15.064Z,2.38
2023-02-24T03:13:12.067Z,1.84
2023-02-24T03:14:13.090Z,2.28
2023-02-24T03:15:13.061Z,1.82
2023-02-24T03:16:11.119Z,1.60
2023-02-24T03:17:17.077Z,1.96
2023-02-24T03:18:20.067Z,2.14
2023-02-24T03:19:13.066Z,2.06
2023-02-24T03:20:25.077Z,1.88
2023-02-24T03:21:13.074Z,1.80
2023-02-24T03:22:13.087Z,1.98
2023-02-24T03:23:17.063Z,2.26
2023-02-24T03:24:11.086Z,1.62
2023-02-24T03:25:11.069Z,2.24
2023-02-24T03:26:18.066Z,1.84
2023-02-24T03:27:17.067Z,1.78
2023-02-24T03:28:15.076Z,1.76
2023-02-24T03:29:21.070Z,2.46
2023-02-24T03:30:19.067Z,2.14
2023-02-24T03:31:21.473Z,2.14
2023-02-24T03:32:19.254Z,1.86
2023-02-24T03:33:19.074Z,2.06
2023-02-24T03:34:17.071Z,4.44
2023-02-24T03:35:17.088Z,1.94
2023-02-24T03:36:11.069Z,1.70
2023-02-24T03:37:11.091Z,1.98
2023-02-24T03:38:11.069Z,3.62
2023-02-24T03:39:16.095Z,1.66
2023-02-24T03:40:15.076Z,2.36
2023-02-24T03:41:15.071Z,1.82
2023-02-24T03:42:15.072Z,2.20
2023-02-24T03:43:17.076Z,2.00
2023-02-24T03:44:11.127Z,1.76
2023-02-24T03:45:11.069Z,1.06
2023-02-24T03:46:11.160Z,2.18
2023-02-24T03:47:11.077Z,2.34
2023-02-24T03:48:11.068Z,1.66
2023-02-24T03:49:12.070Z,1.68
2023-02-24T03:50:18.070Z,2.36
2023-02-24T03:51:14.075Z,1.80
2023-02-24T03:52:22.072Z,1.96
2023-02-24T03:53:19.072Z,1.84
2023-02-24T03:54:21.069Z,1.66
2023-02-24T03:55:19.071Z,1.48
2023-02-24T03:56:19.066Z,1.62
2023-02-24T03:57:21.073Z,2.36
2023-02-24T03:58:21.068Z,2.14
2023-02-24T03:59:19.092Z,1.44
2023-02-24T04:00:21.061Z,1.44
2023-02-24T04:01:22.489Z,1.66
2023-02-24T04:02:20.183Z,1.58
2023-02-24T04:03:19.058Z,1.42
2023-02-24T04:04:19.096Z,2.60
2023-02-24T04:05:19.059Z,1.52
2023-02-24T04:06:19.055Z,1.58
2023-02-24T04:07:19.060Z,1.44
2023-02-24T04:08:11.059Z,1.70
2023-02-24T04:09:19.060Z,1.92
2023-02-24T04:10:19.058Z,1.84
2023-02-24T04:11:22.399Z,1.78
2023-02-24T04:12:21.083Z,1.72
2023-02-24T04:13:19.065Z,3.24
2023-02-24T04:14:16.060Z,1.18
2023-02-24T04:15:19.057Z,1.32
2023-02-24T04:16:16.062Z,1.76
2023-02-24T04:17:15.073Z,2.28
2023-02-24T04:18:17.058Z,1.94
2023-02-24T04:19:14.080Z,1.58
2023-02-24T04:20:15.059Z,1.98
2023-02-24T04:21:11.063Z,1.90
2023-02-24T04:22:13.055Z,1.42
2023-02-24T04:23:17.061Z,1.80
2023-02-24T04:24:16.076Z,1.80
2023-02-24T04:25:15.075Z,1.82
2023-02-24T04:26:12.056Z,1.58
2023-02-24T04:27:12.062Z,1.92
2023-02-24T04:28:11.076Z,1.48
2023-02-24T04:29:11.062Z,1.66
2023-02-24T04:30:14.057Z,1.88
2023-02-24T04:31:12.221Z,1.86
2023-02-24T04:32:11.321Z,1.12
2023-02-24T04:33:11.074Z,2.46
2023-02-24T04:34:13.063Z,2.08
2023-02-24T04:35:13.066Z,1.58
2023-02-24T04:36:11.063Z,2.36
2023-02-24T04:37:11.060Z,2.08
2023-02-24T04:38:11.063Z,1.94
2023-02-24T04:39:11.058Z,1.68
2023-02-24T04:40:17.081Z,1.64
2023-02-24T04:41:11.069Z,1.86
2023-02-24T04:42:11.058Z,2.06
2023-02-24T04:43:11.072Z,1.94
2023-02-24T04:44:11.070Z,1.62
2023-02-24T04:45:16.061Z,2.02
2023-02-24T04:46:11.092Z,2.24
2023-02-24T04:47:11.060Z,1.90
2023-02-24T04:48:15.079Z,2.44
2023-02-24T04:49:11.058Z,2.26
2023-02-24T04:50:11.061Z,1.60
2023-02-24T04:51:11.062Z,2.14
2023-02-24T04:52:11.058Z,1.84
2023-02-24T04:53:15.065Z,2.54
2023-02-24T04:54:12.070Z,1.88
2023-02-24T04:55:14.065Z,2.00
2023-02-24T04:56:12.061Z,1.98
2023-02-24T04:57:11.071Z,1.92
2023-02-24T04:58:14.064Z,1.98
2023-02-24T04:59:11.061Z,2.58
2023-02-24T05:00:15.062Z,2.46
2023-02-24T05:01:12.078Z,2.32
2023-02-24T05:02:11.067Z,2.46
2023-02-24T05:03:11.071Z,1.90
2023-02-24T05:04:11.209Z,2.00
2023-02-24T05:05:11.068Z,2.12
2023-02-24T05:06:14.068Z,1.76
2023-02-24T05:07:11.076Z,2.02
2023-02-24T05:08:11.076Z,3.02
2023-02-24T05:09:17.111Z,1.72
2023-02-24T05:10:11.065Z,2.74
2023-02-24T05:11:14.065Z,2.20
2023-02-24T05:12:11.066Z,2.42
2023-02-24T05:13:16.066Z,3.06
2023-02-24T05:14:13.069Z,3.12
2023-02-24T05:15:11.066Z,2.08
2023-02-24T05:16:11.132Z,3.32
2023-02-24T05:17:11.078Z,2.30
2023-02-24T05:18:12.071Z,2.42
2023-02-24T05:19:16.068Z,1.72
2023-02-24T05:20:15.084Z,2.12
2023-02-24T05:21:15.081Z,1.98
2023-02-24T05:22:11.069Z,2.30
2023-02-24T05:23:11.073Z,2.10
2023-02-24T05:24:15.077Z,2.42
2023-02-24T05:25:11.068Z,2.74
2023-02-24T05:26:14.071Z,1.70
2023-02-24T05:27:11.074Z,1.94
2023-02-24T05:28:11.073Z,2.22
2023-02-24T05:29:11.068Z,2.06
2023-02-24T05:30:13.078Z,2.78
2023-02-24T05:31:12.178Z,2.30
2023-02-24T05:32:11.195Z,1.96
2023-02-24T05:33:11.073Z,1.98
2023-02-24T05:34:11.069Z,1.86
2023-02-24T05:35:11.066Z,2.82
2023-02-24T05:36:13.108Z,1.46
2023-02-24T05:37:14.074Z,2.10
2023-02-24T05:38:12.071Z,1.88
2023-02-24T05:39:11.068Z,1.92
2023-02-24T05:40:11.076Z,2.30
2023-02-24T05:41:12.064Z,2.28
2023-02-24T05:42:11.065Z,2.08
2023-02-24T05:43:11.071Z,1.82
2023-02-24T05:44:15.064Z,2.48
2023-02-24T05:45:11.066Z,2.14
2023-02-24T05:46:11.074Z,2.66
2023-02-24T05:47:11.071Z,1.76
2023-02-24T05:48:11.062Z,1.68
2023-02-24T05:49:18.089Z,1.46
2023-02-24T05:50:11.066Z,2.04
2023-02-24T05:51:12.065Z,2.02
2023-02-24T05:52:13.063Z,2.18
2023-02-24T05:53:13.070Z,1.80
2023-02-24T05:54:12.074Z,1.90
2023-02-24T05:55:11.068Z,2.70
2023-02-24T05:56:13.072Z,2.82
2023-02-24T05:57:14.128Z,1.82
2023-02-24T05:58:11.062Z,3.38
2023-02-24T05:59:11.069Z,2.22
2023-02-24T06:00:17.076Z,2.12
2023-02-24T06:01:16.218Z,2.18
2023-02-24T06:02:11.134Z,2.32
2023-02-24T06:03:15.131Z,1.54
2023-02-24T06:04:11.067Z,1.96
2023-02-24T06:05:12.062Z,2.22
2023-02-24T06:06:12.071Z,3.34
2023-02-24T06:07:18.066Z,2.10
2023-02-24T06:08:11.072Z,2.12
2023-02-24T06:09:14.080Z,1.78
2023-02-24T06:10:14.083Z,2.52
2023-02-24T06:11:12.071Z,2.02
2023-02-24T06:12:11.094Z,2.02
2023-02-24T06:13:11.074Z,1.64
2023-02-24T06:14:12.066Z,4.34
2023-02-24T06:15:11.085Z,1.96
2023-02-24T06:16:11.125Z,3.72
2023-02-24T06:17:11.070Z,2.52
2023-02-24T06:18:11.066Z,2.16
2023-02-24T06:19:11.071Z,2.08
2023-02-24T06:20:17.074Z,2.60
2023-02-24T06:21:11.064Z,1.60
2023-02-24T06:22:16.076Z,1.92
2023-02-24T06:23:11.073Z,3.66
2023-02-24T06:24:14.067Z,1.98
2023-02-24T06:25:11.067Z,2.68
2023-02-24T06:26:15.075Z,2.88
2023-02-24T06:27:16.070Z,1.98
2023-02-24T06:28:11.065Z,1.94
2023-02-24T06:29:14.071Z,1.88
2023-02-24T06:30:14.096Z,3.20
2023-02-24T06:31:12.070Z,2.32
2023-02-24T06:32:12.204Z,2.32
2023-02-24T06:33:11.077Z,2.46
2023-02-24T06:34:11.072Z,3.42
2023-02-24T06:35:11.077Z,2.48
2023-02-24T06:36:11.080Z,2.96
2023-02-24T06:37:12.074Z,2.26
2023-02-24T06:38:11.116Z,4.06
2023-02-24T06:39:11.081Z,2.06
2023-02-24T06:40:17.072Z,2.76
2023-02-24T06:41:14.071Z,2.36
2023-02-24T06:42:12.070Z,3.72
2023-02-24T06:43:11.114Z,2.58
2023-02-24T06:44:11.072Z,3.80
2023-02-24T06:45:12.076Z,1.98
2023-02-24T06:46:11.177Z,2.28
2023-02-24T06:47:12.074Z,1.94
2023-02-24T06:48:11.077Z,2.16
2023-02-24T06:49:11.082Z,2.30
2023-02-24T06:50:11.073Z,1.94
2023-02-24T06:51:11.077Z,2.76
2023-02-24T06:52:11.080Z,3.14
2023-02-24T06:53:14.072Z,3.46
2023-02-24T06:54:11.075Z,2.40
2023-02-24T06:55:11.078Z,2.58
2023-02-24T06:56:11.075Z,2.70
2023-02-24T06:57:12.076Z,3.56
2023-02-24T06:58:18.078Z,3.04
2023-02-24T06:59:16.132Z,4.14
2023-02-24T07:00:15.067Z,3.48
2023-02-24T07:01:15.165Z,2.48
2023-02-24T07:02:12.069Z,2.80
2023-02-24T07:03:18.074Z,2.72
2023-02-24T07:04:17.125Z,3.64
2023-02-24T07:05:11.060Z,2.82
2023-02-24T07:06:15.061Z,2.90
2023-02-24T07:07:11.070Z,3.84
2023-02-24T07:08:12.066Z,3.74
2023-02-24T07:09:14.064Z,3.40
2023-02-24T07:10:13.080Z,3.24
2023-02-24T07:11:11.063Z,3.46
2023-02-24T07:12:11.070Z,2.86
2023-02-24T07:13:11.066Z,4.66
2023-02-24T07:14:11.067Z,3.28
2023-02-24T07:15:11.062Z,3.60
2023-02-24T07:16:18.124Z,3.76
2023-02-24T07:17:11.070Z,3.48
2023-02-24T07:18:15.082Z,3.34
2023-02-24T07:19:14.062Z,3.84
2023-02-24T07:20:15.066Z,4.56
2023-02-24T07:21:15.070Z,3.14
2023-02-24T07:22:11.064Z,4.04
2023-02-24T07:23:11.062Z,3.84
2023-02-24T07:24:11.062Z,4.06
2023-02-24T07:25:11.064Z,3.86
2023-02-24T07:26:12.077Z,3.66
2023-02-24T07:27:13.094Z,3.46
2023-02-24T07:28:11.079Z,3.16
2023-02-24T07:29:12.069Z,2.74
2023-02-24T07:30:13.080Z,3.38
2023-02-24T07:31:12.227Z,2.96
2023-02-24T07:32:11.182Z,3.04
2023-02-24T07:33:11.062Z,3.02
2023-02-24T07:34:11.072Z,3.96
2023-02-24T07:35:11.066Z,2.98
2023-02-24T07:36:12.067Z,2.90
2023-02-24T07:37:12.070Z,3.34
2023-02-24T07:38:11.065Z,3.28
2023-02-24T07:39:11.062Z,2.64
2023-02-24T07:40:11.062Z,2.68
2023-02-24T07:41:12.062Z,3.68
2023-02-24T07:42:11.063Z,3.46
2023-02-24T07:43:11.071Z,3.30
2023-02-24T07:44:13.064Z,2.72
2023-02-24T07:45:11.110Z,3.52
2023-02-24T07:46:11.172Z,3.08
2023-02-24T07:47:12.070Z,3.56
2023-02-24T07:48:11.061Z,4.12
2023-02-24T07:49:14.077Z,2.94
2023-02-24T07:50:14.081Z,4.16
2023-02-24T07:51:11.061Z,3.60
2023-02-24T07:52:11.058Z,4.28
2023-02-24T07:53:11.065Z,3.04
2023-02-24T07:54:12.062Z,3.32
2023-02-24T07:55:11.086Z,3.24
2023-02-24T07:56:14.061Z,4.60
2023-02-24T07:57:11.061Z,3.08
2023-02-24T07:58:11.058Z,3.42
2023-02-24T07:59:13.060Z,3.70
2023-02-24T08:00:15.079Z,3.74
2023-02-24T08:01:12.100Z,2.64
2023-02-24T08:02:11.104Z,3.36
2023-02-24T08:03:11.063Z,4.56
2023-02-24T08:04:11.060Z,3.14
2023-02-24T08:05:12.086Z,3.38
2023-02-24T08:06:15.068Z,3.40
2023-02-24T08:07:15.062Z,3.40
2023-02-24T08:08:11.060Z,3.42
2023-02-24T08:09:18.072Z,3.16
2023-02-24T08:10:15.063Z,3.00
2023-02-24T08:11:14.062Z,4.48
2023-02-24T08:12:13.059Z,4.26
2023-02-24T08:13:11.056Z,3.12
2023-02-24T08:14:17.092Z,4.66
2023-02-24T08:15:15.080Z,4.44
2023-02-24T08:16:11.111Z,3.56
2023-02-24T08:17:11.061Z,4.62
2023-02-24T08:18:11.063Z,4.14
2023-02-24T08:19:11.062Z,4.54
2023-02-24T08:20:15.067Z,4.26
2023-02-24T08:21:11.070Z,4.50
2023-02-24T08:22:15.061Z,4.42
2023-02-24T08:23:12.061Z,3.64
2023-02-24T08:24:15.065Z,5.08
2023-02-24T08:25:11.065Z,3.64
2023-02-24T08:26:15.156Z,4.46
2023-02-24T08:27:11.079Z,4.22
2023-02-24T08:28:11.068Z,4.76
2023-02-24T08:29:11.067Z,3.46
2023-02-24T08:30:11.083Z,3.70
2023-02-24T08:31:11.206Z,3.24
2023-02-24T08:32:11.201Z,3.26
2023-02-24T08:33:11.075Z,3.72
2023-02-24T08:34:11.085Z,5.18
2023-02-24T08:35:17.105Z,3.94
2023-02-24T08:36:11.064Z,5.44
2023-02-24T08:37:11.074Z,4.24
2023-02-24T08:38:13.064Z,4.26
2023-02-24T08:39:11.066Z,3.80
2023-02-24T08:40:17.085Z,4.12
2023-02-24T08:41:13.073Z,5.02
2023-02-24T08:42:11.062Z,4.34
2023-02-24T08:43:15.066Z,3.98
2023-02-24T08:44:13.070Z,4.16
2023-02-24T08:45:11.063Z,5.82
2023-02-24T08:46:18.251Z,3.92
2023-02-24T08:47:11.072Z,4.58
2023-02-24T08:48:15.069Z,4.06
2023-02-24T08:49:14.065Z,5.32
2023-02-24T08:50:12.079Z,4.52
2023-02-24T08:51:16.079Z,4.32
2023-02-24T08:52:11.070Z,4.58
2023-02-24T08:53:14.067Z,4.98
2023-02-24T08:54:18.076Z,4.56
2023-02-24T08:55:14.078Z,4.12
2023-02-24T08:56:15.074Z,5.26
2023-02-24T08:57:12.070Z,4.90
2023-02-24T08:58:14.122Z,4.86
2023-02-24T08:59:13.082Z,5.34
2023-02-24T09:00:11.070Z,4.84
2023-02-24T09:01:19.725Z,5.24
2023-02-24T09:02:21.090Z,5.64
2023-02-24T09:03:12.081Z,5.28
2023-02-24T09:04:11.072Z,5.36
2023-02-24T09:05:14.694Z,5.28
2023-02-24T09:06:11.074Z,4.66
2023-02-24T09:07:18.074Z,4.92
2023-02-24T09:08:11.074Z,4.68
2023-02-24T09:09:18.082Z,4.88
2023-02-24T09:10:17.093Z,5.98
2023-02-24T09:11:11.078Z,4.64
2023-02-24T09:12:11.074Z,5.76
2023-02-24T09:13:12.076Z,5.12
2023-02-24T09:14:25.959Z,5.94
2023-02-24T09:15:13.076Z,5.30
2023-02-24T09:16:11.088Z,5.74
2023-02-24T09:17:13.081Z,6.44
2023-02-24T09:18:14.079Z,5.94
2023-02-24T09:19:15.072Z,6.66
2023-02-24T09:20:19.077Z,5.40
2023-02-24T09:21:15.084Z,6.84
2023-02-24T09:22:21.676Z,5.74
2023-02-24T09:23:14.075Z,5.46
2023-02-24T09:24:11.078Z,6.04
2023-02-24T09:25:15.084Z,6.04
2023-02-24T09:26:14.075Z,5.30
2023-02-24T09:27:11.071Z,7.46
2023-02-24T09:28:19.155Z,6.70
2023-02-24T09:29:15.075Z,6.72
2023-02-24T09:30:13.074Z,6.00
2023-02-24T09:31:11.140Z,5.76
2023-02-24T09:32:11.178Z,6.56
2023-02-24T09:33:16.084Z,7.40
2023-02-24T09:34:11.073Z,5.96
2023-02-24T09:35:11.083Z,6.74
2023-02-24T09:36:15.073Z,6.44
2023-02-24T09:37:11.075Z,6.00
2023-02-24T09:38:11.103Z,6.20
2023-02-24T09:39:15.084Z,6.14
2023-02-24T09:40:15.073Z,6.30
2023-02-24T09:41:19.373Z,6.22
2023-02-24T09:42:17.074Z,7.98
2023-02-24T09:43:19.080Z,6.72
2023-02-24T09:44:15.080Z,7.08
2023-02-24T09:45:20.101Z,7.56
2023-02-24T09:46:15.331Z,6.82
2023-02-24T09:47:17.080Z,6.48
2023-02-24T09:48:19.075Z,6.80
2023-02-24T09:49:16.090Z,6.34
2023-02-24T09:50:38.264Z,6.46
2023-02-24T09:51:13.121Z,6.18
2023-02-24T09:52:16.076Z,6.10
2023-02-24T09:53:16.082Z,7.08
2023-02-24T09:54:17.080Z,6.72
2023-02-24T09:55:19.089Z,9.20
2023-02-24T09:56:21.079Z,6.12
2023-02-24T09:57:16.184Z,7.24
2023-02-24T09:58:29.315Z,6.22
2023-02-24T09:59:26.375Z,6.64
2023-02-24T10:00:19.068Z,5.84
2023-02-24T10:01:23.541Z,5.80
2023-02-24T10:02:19.128Z,6.72
2023-02-24T10:03:21.065Z,5.78
2023-02-24T10:04:21.459Z,5.26
2023-02-24T10:05:21.093Z,6.70
2023-02-24T10:06:22.073Z,7.12
2023-02-24T10:07:21.067Z,7.02
2023-02-24T10:08:21.067Z,6.40
2023-02-24T10:09:23.071Z,6.22
2023-02-24T10:10:21.096Z,6.14
2023-02-24T10:11:12.113Z,7.24
2023-02-24T10:12:21.067Z,6.98
2023-02-24T10:13:21.065Z,6.14
2023-02-24T10:14:14.087Z,6.32
2023-02-24T10:15:18.091Z,6.14
2023-02-24T10:16:14.129Z,5.04
2023-02-24T10:17:18.088Z,5.00
2023-02-24T10:18:19.074Z,5.02
2023-02-24T10:19:26.068Z,5.36
2023-02-24T10:20:18.070Z,4.94
2023-02-24T10:21:21.389Z,4.36
2023-02-24T10:22:18.069Z,4.50
2023-02-24T10:23:22.071Z,6.22
2023-02-24T10:24:20.082Z,5.90
2023-02-24T10:25:27.117Z,5.60
2023-02-24T10:26:17.073Z,5.54
2023-02-24T10:27:19.072Z,4.36
2023-02-24T10:28:21.076Z,4.96
2023-02-24T10:29:20.073Z,5.06
2023-02-24T10:30:22.069Z,4.94
2023-02-24T10:31:18.225Z,4.68
2023-02-24T10:32:19.278Z,5.60
2023-02-24T10:33:21.070Z,4.60
2023-02-24T10:34:15.067Z,5.12
2023-02-24T10:35:15.075Z,4.68
2023-02-24T10:36:17.106Z,4.54
2023-02-24T10:37:27.730Z,5.26
2023-02-24T10:38:13.071Z,4.84
2023-02-24T10:39:19.079Z,3.70
2023-02-24T10:40:15.074Z,3.90
2023-02-24T10:41:11.071Z,4.34
2023-02-24T10:42:23.072Z,4.34
2023-02-24T10:43:19.110Z,4.14
2023-02-24T10:44:12.081Z,4.44
2023-02-24T10:45:17.804Z,4.48
2023-02-24T10:46:26.295Z,3.90
2023-02-24T10:47:17.069Z,4.30
2023-02-24T10:48:12.628Z,3.84
2023-02-24T10:49:13.084Z,3.16
2023-02-24T10:50:23.093Z,3.78
2023-02-24T10:51:17.074Z,3.64
2023-02-24T10:52:15.075Z,3.68
2023-02-24T10:53:16.073Z,3.88
2023-02-24T10:54:24.084Z,3.68
2023-02-24T10:55:24.073Z,4.42
2023-02-24T10:56:15.307Z,4.36
2023-02-24T10:57:17.077Z,3.62
2023-02-24T10:58:20.073Z,4.14
2023-02-24T10:59:16.103Z,4.34
2023-02-24T11:00:20.194Z,4.20
2023-02-24T11:01:19.193Z,4.84
2023-02-24T11:02:22.094Z,3.64
2023-02-24T11:03:19.443Z,4.00
2023-02-24T11:04:17.062Z,3.00
2023-02-24T11:05:15.079Z,4.12
2023-02-24T11:06:22.127Z,5.02
2023-02-24T11:07:15.083Z,4.00
2023-02-24T11:08:14.072Z,4.80
2023-02-24T11:09:19.097Z,2.78
2023-02-24T11:10:17.076Z,3.64
2023-02-24T11:11:19.582Z,3.62
2023-02-24T11:12:22.076Z,4.14
2023-02-24T11:13:17.071Z,2.48
2023-02-24T11:14:17.069Z,3.88
2023-02-24T11:15:21.075Z,3.44
2023-02-24T11:16:15.127Z,3.94
2023-02-24T11:17:20.072Z,2.94
2023-02-24T11:18:22.070Z,4.12
2023-02-24T11:19:12.067Z,2.84
2023-02-24T11:20:29.464Z,2.68
2023-02-24T11:21:16.070Z,2.84
2023-02-24T11:22:20.071Z,2.70
2023-02-24T11:23:17.070Z,2.86
2023-02-24T11:24:18.117Z,1.72
2023-02-24T11:25:17.080Z,1.72
2023-02-24T11:26:19.070Z,1.68
2023-02-24T11:27:12.075Z,2.22
2023-02-24T11:28:21.091Z,1.96
2023-02-24T11:29:19.086Z,3.26
2023-02-24T11:30:21.075Z,2.10
2023-02-24T11:31:19.275Z,2.22
2023-02-24T11:32:20.185Z,2.06
2023-02-24T11:33:21.074Z,2.42
2023-02-24T11:34:21.085Z,3.30
2023-02-24T11:35:20.097Z,2.60
2023-02-24T11:36:23.079Z,2.12
2023-02-24T11:37:19.070Z,2.94
2023-02-24T11:38:19.076Z,2.72
2023-02-24T11:39:21.742Z,2.90
2023-02-24T11:40:19.099Z,2.20
2023-02-24T11:41:18.074Z,2.34
2023-02-24T11:42:21.075Z,1.82
2023-02-24T11:43:18.078Z,2.14
2023-02-24T11:44:20.083Z,2.20
2023-02-24T11:45:20.074Z,2.60
2023-02-24T11:46:21.134Z,2.54
2023-02-24T11:47:16.072Z,3.10
2023-02-24T11:48:19.082Z,2.64
2023-02-24T11:49:19.079Z,2.18
2023-02-24T11:50:21.072Z,2.02
2023-02-24T11:51:18.078Z,1.62
2023-02-24T11:52:17.076Z,2.18
2023-02-24T11:53:19.086Z,2.28
2023-02-24T11:54:15.079Z,3.26
2023-02-24T11:55:19.086Z,1.96
2023-02-24T11:56:15.096Z,1.38
2023-02-24T11:57:19.087Z,2.58
2023-02-24T11:58:23.081Z,1.84
2023-02-24T11:59:19.083Z,2.32
2023-02-24T12:00:16.174Z,2.14
2023-02-24T12:01:19.327Z,2.38
2023-02-24T12:02:21.193Z,2.64
2023-02-24T12:03:21.660Z,2.32
2023-02-24T12:04:19.101Z,3.06
2023-02-24T12:05:19.229Z,2.54
2023-02-24T12:06:18.201Z,3.30
2023-02-24T12:07:19.096Z,2.66
2023-02-24T12:08:19.094Z,1.92
2023-02-24T12:09:16.081Z,2.38
2023-02-24T12:10:19.087Z,2.58
2023-02-24T12:11:22.385Z,2.16
2023-02-24T12:12:17.087Z,3.24
2023-02-24T12:13:21.216Z,2.50
2023-02-24T12:14:19.087Z,1.70
2023-02-24T12:15:19.105Z,1.78
2023-02-24T12:16:19.195Z,2.54
2023-02-24T12:17:19.099Z,3.60
2023-02-24T12:18:19.103Z,2.52
2023-02-24T12:19:19.095Z,1.96
2023-02-24T12:20:19.105Z,1.82
2023-02-24T12:21:19.264Z,1.46
2023-02-24T12:22:16.103Z,1.64
2023-02-24T12:23:19.101Z,1.76
2023-02-24T12:24:12.079Z,1.48
2023-02-24T12:25:12.085Z,2.12
2023-02-24T12:26:20.082Z,1.40
2023-02-24T12:27:16.081Z,1.26
2023-02-24T12:28:19.109Z,2.26
2023-02-24T12:29:19.109Z,2.58
2023-02-24T12:30:19.082Z,2.02
2023-02-24T12:31:20.601Z,1.84
2023-02-24T12:32:19.308Z,1.44
2023-02-24T12:33:21.081Z,1.78
2023-02-24T12:34:22.088Z,1.92
2023-02-24T12:35:19.115Z,2.44
2023-02-24T12:36:19.102Z,2.04
2023-02-24T12:37:21.081Z,1.80
2023-02-24T12:38:21.084Z,2.34
2023-02-24T12:39:19.116Z,1.94
2023-02-24T12:40:23.089Z,1.42
2023-02-24T12:41:21.394Z,1.50
2023-02-24T12:42:19.081Z,1.50
2023-02-24T12:43:18.077Z,2.22
2023-02-24T12:44:23.092Z,1.96
2023-02-24T12:45:19.111Z,2.20
2023-02-24T12:46:21.144Z,1.62
2023-02-24T12:47:15.103Z,1.50
2023-02-24T12:48:21.085Z,3.00
2023-02-24T12:49:21.086Z,1.34
2023-02-24T12:50:21.089Z,2.22
2023-02-24T12:51:19.286Z,1.94
2023-02-24T12:52:19.089Z,2.30
2023-02-24T12:53:19.079Z,2.74
2023-02-24T12:54:19.080Z,1.88
2023-02-24T12:55:19.082Z,1.34
2023-02-24T12:56:19.114Z,1.88
2023-02-24T12:57:19.088Z,1.14
2023-02-24T12:58:19.080Z,1.40
2023-02-24T12:59:14.080Z,1.16
2023-02-24T13:00:18.069Z,1.06
2023-02-24T13:01:21.485Z,1.12
2023-02-24T13:02:19.110Z,1.54
2023-02-24T13:03:21.060Z,0.78
2023-02-24T13:04:19.067Z,1.02
2023-02-24T13:05:19.072Z,0.98
2023-02-24T13:06:19.069Z,0.84
2023-02-24T13:07:19.063Z,1.56
2023-02-24T13:08:19.060Z,1.44
2023-02-24T13:09:19.062Z,1.04
2023-02-24T13:10:20.076Z,1.08
2023-02-24T13:11:19.328Z,1.16
2023-02-24T13:12:18.067Z,1.08
2023-02-24T13:13:18.066Z,2.70
2023-02-24T13:14:19.073Z,1.44
2023-02-24T13:15:19.071Z,0.98
2023-02-24T13:16:12.138Z,1.64
2023-02-24T13:17:20.208Z,1.24
2023-02-24T13:18:11.065Z,2.40